Time;durP1;ratioP1;P1;durP2;ratioP2;P2;SDS_P1;SDS_P2;PMS_P1;PMS_P2;Temp;Humidity;BMP_temperature;BMP_pressure;BME280_temperature;BME280_humidity;BME280_pressure;Samples;Min_cycle;Max_cycle;Signal;HPM_P1;HPM_P2
2020/11/05 00:00:55;;;;;;;2.3;2.1;;;;;;;;;;;;;
2020/11/05 00:03:20;;;;;;;3.3;1.9;;;;;;;;;;;;;
2020/11/05 00:05:45;;;;;;;4.6;2.7;;;;;;;;;;;;;
2020/11/05 00:08:12;;;;;;;3;2.3;;;;;;;;;;;;;
2020/11/05 00:10:37;;;;;;;3.3;2.5;;;;;;;;;;;;;
2020/11/05 00:13:03;;;;;;;3.2;1.8;;;;;;;;;;;;;
2020/11/05 00:15:28;;;;;;;3.3;1.9;;;;;;;;;;;;;
2020/11/05 00:17:54;;;;;;;3.9;2.5;;;;;;;;;;;;;
2020/11/05 00:20:19;;;;;;;4.6;2.1;;;;;;;;;;;;;
2020/11/05 00:22:45;;;;;;;3.6;2.2;;;;;;;;;;;;;
2020/11/05 00:25:10;;;;;;;2.7;2;;;;;;;;;;;;;
2020/11/05 00:27:36;;;;;;;3;2.4;;;;;;;;;;;;;
2020/11/05 00:30:02;;;;;;;3.2;2.4;;;;;;;;;;;;;
2020/11/05 00:32:28;;;;;;;3.3;2.4;;;;;;;;;;;;;
2020/11/05 00:34:53;;;;;;;4.1;2.5;;;;;;;;;;;;;
2020/11/05 00:37:18;;;;;;;4.2;2;;;;;;;;;;;;;
2020/11/05 00:39:43;;;;;;;4.7;2.3;;;;;;;;;;;;;
2020/11/05 00:42:09;;;;;;;3.6;2.4;;;;;;;;;;;;;
2020/11/05 00:44:34;;;;;;;5.1;2.7;;;;;;;;;;;;;
2020/11/05 00:46:59;;;;;;;3.9;2.6;;;;;;;;;;;;;
2020/11/05 00:49:24;;;;;;;3.4;2.3;;;;;;;;;;;;;
2020/11/05 00:51:50;;;;;;;4.2;2.4;;;;;;;;;;;;;
2020/11/05 00:54:15;;;;;;;4.8;2.4;;;;;;;;;;;;;
2020/11/05 00:56:40;;;;;;;4.6;3;;;;;;;;;;;;;
2020/11/05 00:59:05;;;;;;;4.6;2.3;;;;;;;;;;;;;
2020/11/05 01:01:31;;;;;;;2.6;2;;;;;;;;;;;;;
2020/11/05 01:03:56;;;;;;;6.1;2.5;;;;;;;;;;;;;
2020/11/05 01:06:21;;;;;;;4.4;2.4;;;;;;;;;;;;;
2020/11/05 01:08:46;;;;;;;5.5;2.3;;;;;;;;;;;;;
2020/11/05 01:11:11;;;;;;;4.5;2.9;;;;;;;;;;;;;
2020/11/05 01:13:36;;;;;;;4;2.5;;;;;;;;;;;;;
2020/11/05 01:16:02;;;;;;;3.6;2.7;;;;;;;;;;;;;
2020/11/05 01:18:27;;;;;;;3.8;2.4;;;;;;;;;;;;;
2020/11/05 01:20:52;;;;;;;6;2.4;;;;;;;;;;;;;
2020/11/05 01:23:18;;;;;;;4;2.4;;;;;;;;;;;;;
2020/11/05 01:25:43;;;;;;;3;2.3;;;;;;;;;;;;;
2020/11/05 01:28:07;;;;;;;3.7;2.6;;;;;;;;;;;;;
2020/11/05 01:30:35;;;;;;;2.5;2.1;;;;;;;;;;;;;
2020/11/05 01:33:00;;;;;;;5.8;3.1;;;;;;;;;;;;;
2020/11/05 01:35:26;;;;;;;4.5;2.4;;;;;;;;;;;;;
2020/11/05 01:37:51;;;;;;;4.5;3;;;;;;;;;;;;;
2020/11/05 01:40:17;;;;;;;4;2.6;;;;;;;;;;;;;
2020/11/05 01:42:42;;;;;;;7.1;2.9;;;;;;;;;;;;;
2020/11/05 01:45:07;;;;;;;5.3;3.1;;;;;;;;;;;;;
2020/11/05 01:47:32;;;;;;;4.4;2.7;;;;;;;;;;;;;
2020/11/05 01:49:59;;;;;;;4.9;3;;;;;;;;;;;;;
2020/11/05 01:52:24;;;;;;;7;3.5;;;;;;;;;;;;;
2020/11/05 01:54:50;;;;;;;5.3;3.2;;;;;;;;;;;;;
2020/11/05 01:57:15;;;;;;;6.2;3.2;;;;;;;;;;;;;
2020/11/05 01:59:41;;;;;;;4.3;3;;;;;;;;;;;;;
2020/11/05 02:02:06;;;;;;;7.4;3.5;;;;;;;;;;;;;
2020/11/05 02:04:33;;;;;;;4.5;3.1;;;;;;;;;;;;;
2020/11/05 02:06:58;;;;;;;5.2;3.1;;;;;;;;;;;;;
2020/11/05 02:09:24;;;;;;;6.5;3.9;;;;;;;;;;;;;
2020/11/05 02:11:50;;;;;;;7.4;4.1;;;;;;;;;;;;;
2020/11/05 02:14:14;;;;;;;5.9;3.4;;;;;;;;;;;;;
2020/11/05 02:16:39;;;;;;;7.7;3.7;;;;;;;;;;;;;
2020/11/05 02:19:05;;;;;;;7.8;4;;;;;;;;;;;;;
2020/11/05 02:21:30;;;;;;;6.7;3.6;;;;;;;;;;;;;
2020/11/05 02:23:55;;;;;;;7.8;3.7;;;;;;;;;;;;;
2020/11/05 02:26:20;;;;;;;4.5;3.4;;;;;;;;;;;;;
2020/11/05 02:28:45;;;;;;;6.8;3.8;;;;;;;;;;;;;
2020/11/05 02:31:12;;;;;;;5.2;3.6;;;;;;;;;;;;;
2020/11/05 02:33:36;;;;;;;7.4;3.6;;;;;;;;;;;;;
2020/11/05 02:36:01;;;;;;;5.6;3.4;;;;;;;;;;;;;
2020/11/05 02:38:26;;;;;;;9.8;3.9;;;;;;;;;;;;;
2020/11/05 02:40:52;;;;;;;7;3.7;;;;;;;;;;;;;
2020/11/05 02:43:17;;;;;;;7.6;3.9;;;;;;;;;;;;;
2020/11/05 02:45:42;;;;;;;6.2;3.9;;;;;;;;;;;;;
2020/11/05 02:48:07;;;;;;;10.3;4.2;;;;;;;;;;;;;
2020/11/05 02:50:32;;;;;;;7.6;3.9;;;;;;;;;;;;;
2020/11/05 02:52:57;;;;;;;8.6;4.6;;;;;;;;;;;;;
2020/11/05 02:55:23;;;;;;;10.1;4.4;;;;;;;;;;;;;
2020/11/05 02:57:48;;;;;;;9.8;3.9;;;;;;;;;;;;;
2020/11/05 03:00:13;;;;;;;7.9;4.6;;;;;;;;;;;;;
2020/11/05 03:02:41;;;;;;;7.6;4.5;;;;;;;;;;;;;
2020/11/05 03:05:06;;;;;;;8.8;4.5;;;;;;;;;;;;;
2020/11/05 03:07:32;;;;;;;8;4.2;;;;;;;;;;;;;
2020/11/05 03:09:57;;;;;;;6.8;4;;;;;;;;;;;;;
2020/11/05 03:12:22;;;;;;;7.4;4.4;;;;;;;;;;;;;
2020/11/05 03:14:47;;;;;;;10.3;4.6;;;;;;;;;;;;;
2020/11/05 03:17:14;;;;;;;9.2;4.2;;;;;;;;;;;;;
2020/11/05 03:19:39;;;;;;;7.1;4.2;;;;;;;;;;;;;
2020/11/05 03:22:04;;;;;;;8.7;4.3;;;;;;;;;;;;;
2020/11/05 03:24:30;;;;;;;8.9;4.2;;;;;;;;;;;;;
2020/11/05 03:26:55;;;;;;;8.3;4.7;;;;;;;;;;;;;
2020/11/05 03:29:20;;;;;;;7.9;4.4;;;;;;;;;;;;;
2020/11/05 03:31:45;;;;;;;8.3;4.4;;;;;;;;;;;;;
2020/11/05 03:34:31;;;;;;;10.2;5;;;;;;;;;;;;;
2020/11/05 03:36:56;;;;;;;8.9;4.2;;;;;;;;;;;;;
2020/11/05 03:39:22;;;;;;;9.8;4.4;;;;;;;;;;;;;
2020/11/05 03:41:47;;;;;;;5.6;3.6;;;;;;;;;;;;;
2020/11/05 03:44:12;;;;;;;6.7;4.6;;;;;;;;;;;;;
2020/11/05 03:46:37;;;;;;;8.6;4.6;;;;;;;;;;;;;
2020/11/05 03:49:03;;;;;;;7.7;4.1;;;;;;;;;;;;;
2020/11/05 03:51:28;;;;;;;8.1;4.4;;;;;;;;;;;;;
2020/11/05 03:53:54;;;;;;;8.4;4.2;;;;;;;;;;;;;
2020/11/05 03:56:19;;;;;;;8.8;4.5;;;;;;;;;;;;;
2020/11/05 03:58:44;;;;;;;7.7;4.5;;;;;;;;;;;;;
2020/11/05 04:02:33;;;;;;;17.4;5;;;;;;;9.8;87.75488;952.1953;;;;
2020/11/05 04:04:58;;;;;;;9.2;4.6;;;;;;;9.68;88.25391;952.1838;;;;
2020/11/05 04:07:23;;;;;;;7.6;4;;;;;;;9.69;87.88086;952.1859;;;;
2020/11/05 04:09:48;;;;;;;7.4;4.4;;;;;;;9.62;88.19531;952.1738;;;;
2020/11/05 04:12:14;;;;;;;9.6;4.6;;;;;;;9.72;88.0459;952.1987;;;;
2020/11/05 04:14:39;;;;;;;8.1;4.8;;;;;;;9.76;87.79297;952.1677;;;;
2020/11/05 04:17:07;;;;;;;10.3;5;;;;;;;9.74;87.71973;952.2425;;;;
2020/11/05 04:19:32;;;;;;;21.1;5.1;;;;;;;9.69;87.89258;952.2414;;;;
2020/11/05 04:21:59;;;;;;;8.6;5.1;;;;;;;9.73;87.82227;952.2701;;;;
2020/11/05 04:24:24;;;;;;;8.1;4.7;;;;;;;9.75;87.91504;952.3222;;;;
2020/11/05 04:26:49;;;;;;;8.8;4.8;;;;;;;9.62;88.44531;952.3033;;;;
2020/11/05 04:29:15;;;;;;;7.2;3.9;;;;;;;9.61;88.58203;952.2903;;;;
2020/11/05 04:31:43;;;;;;;8.7;4.8;;;;;;;9.64;88.34863;952.383;;;;
2020/11/05 04:34:09;;;;;;;9.8;4.7;;;;;;;9.64;88.40527;952.426;;;;
2020/11/05 04:36:36;;;;;;;9.5;4.6;;;;;;;9.64;88.40527;952.4164;;;;
2020/11/05 04:39:01;;;;;;;13.8;5.3;;;;;;;9.64;88.42871;952.437;;;;
2020/11/05 04:41:29;;;;;;;10.6;5.4;;;;;;;9.53;88.85059;952.4478;;;;
2020/11/05 04:43:55;;;;;;;9.2;4.9;;;;;;;9.59;88.68164;952.5198;;;;
2020/11/05 04:46:20;;;;;;;7;4.4;;;;;;;9.57;88.84863;952.5289;;;;
2020/11/05 04:48:46;;;;;;;8.7;4.8;;;;;;;9.51;89.18848;952.6108;;;;
2020/11/05 04:51:11;;;;;;;8;4.6;;;;;;;9.56;88.80078;952.5675;;;;
2020/11/05 04:53:36;;;;;;;9.5;5;;;;;;;9.56;88.88086;952.5595;;;;
2020/11/05 04:56:05;;;;;;;9.6;5.2;;;;;;;9.5;88.84473;952.6145;;;;
2020/11/05 04:58:29;;;;;;;10.3;5.3;;;;;;;9.51;88.74414;952.6124;;;;
2020/11/05 05:00:55;;;;;;;11.8;5.7;;;;;;;9.44;89.25293;952.6046;;;;
2020/11/05 05:03:20;;;;;;;9.8;5;;;;;;;9.44;89.31055;952.5878;;;;
2020/11/05 05:05:49;;;;;;;11.7;5.3;;;;;;;9.41;89.52148;952.5914;;;;
2020/11/05 05:08:17;;;;;;;8.6;4.6;;;;;;;9.22;89.93555;952.5427;;;;
2020/11/05 05:10:42;;;;;;;13.4;5.3;;;;;;;9.36;89.74902;952.5273;;;;
2020/11/05 05:13:07;;;;;;;8.7;4.8;;;;;;;9.21;90.37891;952.498;;;;
2020/11/05 05:15:36;;;;;;;8.5;3.7;;;;;;;9.25;90.1377;952.5806;;;;
2020/11/05 05:18:01;;;;;;;6.4;4;;;;;;;9.35;89.83789;952.58;;;;
2020/11/05 05:20:26;;;;;;;7.9;4.9;;;;;;;9.43;89.44531;952.5023;;;;
2020/11/05 05:23:36;;;;;;;7.3;4.1;;;;;;;9.42;89.38477;952.5678;;;;
2020/11/05 05:25:23;;;;;;;9.9;4.6;;;;;;;9.47;89.13379;952.5721;;;;
2020/11/05 05:27:48;;;;;;;6.7;3.6;;;;;;;9.59;88.66992;952.5206;;;;
2020/11/05 05:30:13;;;;;;;8.3;4.4;;;;;;;9.52;88.48242;952.4777;;;;
2020/11/05 05:32:41;;;;;;;10;4.2;;;;;;;9.61;88.24023;952.4959;;;;
2020/11/05 05:35:06;;;;;;;7.1;4.4;;;;;;;9.21;89.61621;952.5011;;;;
2020/11/05 05:37:32;;;;;;;7.3;4;;;;;;;9.36;89.32813;952.5288;;;;
2020/11/05 05:39:57;;;;;;;9.5;4.3;;;;;;;9.35;89.54199;952.4975;;;;
2020/11/05 05:42:23;;;;;;;5.2;3.5;;;;;;;9.43;89.00098;952.5175;;;;
2020/11/05 05:44:50;;;;;;;7.2;4.3;;;;;;;9.28;89.8916;952.4543;;;;
2020/11/05 05:47:15;;;;;;;8.2;4.1;;;;;;;9.26;89.79688;952.5157;;;;
2020/11/05 05:49:44;;;;;;;12.1;4.1;;;;;;;9.39;89.29883;952.5442;;;;
2020/11/05 05:52:09;;;;;;;7.6;3.4;;;;;;;9.49;88.72754;952.6103;;;;
2020/11/05 05:54:34;;;;;;;8.3;3.6;;;;;;;9.46;88.80176;952.6283;;;;
2020/11/05 05:57:00;;;;;;;7.2;4.2;;;;;;;9.43;88.81836;952.639;;;;
2020/11/05 05:59:26;;;;;;;8.1;3.5;;;;;;;9.49;88.73926;952.6682;;;;
2020/11/05 06:01:56;;;;;;;4.9;3.3;;;;;;;9.52;88.75586;952.6867;;;;
2020/11/05 06:04:24;;;;;;;6.6;3.9;;;;;;;9.5;88.53711;952.7029;;;;
2020/11/05 06:06:49;;;;;;;5.4;3.3;;;;;;;9.43;89.05762;952.7567;;;;
2020/11/05 06:09:14;;;;;;;6.2;3.4;;;;;;;9.47;89.21387;952.7971;;;;
2020/11/05 06:11:39;;;;;;;8;4.1;;;;;;;9.44;89.11719;952.8066;;;;
2020/11/05 06:14:04;;;;;;;6.5;4.1;;;;;;;9.53;88.91895;952.8629;;;;
2020/11/05 06:17:17;;;;;;;7.3;3.9;;;;;;;9.62;88.47949;952.8577;;;;
2020/11/05 06:19:38;;;;;;;6.8;3.7;;;;;;;9.6;88.33008;952.8943;;;;
2020/11/05 06:22:03;;;;;;;5.7;3.5;;;;;;;9.65;88.14551;952.9917;;;;
2020/11/05 06:24:30;;;;;;;5.9;3.8;;;;;;;9.5;88.85449;952.9698;;;;
2020/11/05 06:26:59;;;;;;;7.5;3.8;;;;;;;9.56;88.70801;953.0692;;;;
2020/11/05 06:29:26;;;;;;;7.4;3.8;;;;;;;9.58;88.47266;953.0467;;;;
2020/11/05 06:31:50;;;;;;;8.2;3.9;;;;;;;9.51;88.50293;953.1014;;;;
2020/11/05 06:34:15;;;;;;;7.6;4.3;;;;;;;9.58;88.25586;953.0912;;;;
2020/11/05 06:36:43;;;;;;;5.3;3.5;;;;;;;9.55;88.35352;953.1435;;;;
2020/11/05 06:39:08;;;;;;;9.6;4.1;;;;;;;9.55;88.25195;953.1898;;;;
2020/11/05 06:41:33;;;;;;;9.4;4.9;;;;;;;9.55;88.61523;953.2772;;;;
2020/11/05 06:43:59;;;;;;;7.8;3.8;;;;;;;9.55;88.68555;953.3139;;;;
2020/11/05 06:46:24;;;;;;;6.5;3.8;;;;;;;9.37;89.44531;953.3219;;;;
2020/11/05 06:48:51;;;;;;;8;4.1;;;;;;;9.35;89.79297;953.3394;;;;
2020/11/05 06:51:16;;;;;;;9.5;4.3;;;;;;;9.43;89.49023;953.372;;;;
2020/11/05 06:53:45;;;;;;;7.8;3.7;;;;;;;9.33;89.86621;953.4464;;;;
2020/11/05 06:56:09;;;;;;;7.2;4.1;;;;;;;9.37;89.79785;953.465;;;;
2020/11/05 06:58:34;;;;;;;7.7;4.5;;;;;;;9.38;89.65234;953.4645;;;;
2020/11/05 07:00:59;;;;;;;6.4;4;;;;;;;9.46;89.66699;953.463;;;;
2020/11/05 07:03:24;;;;;;;9.5;5;;;;;;;9.51;89.30273;953.5016;;;;
2020/11/05 07:05:50;;;;;;;9.1;5;;;;;;;9.61;88.86719;953.5087;;;;
2020/11/05 07:08:17;;;;;;;10.9;5;;;;;;;9.65;88.56738;953.6033;;;;
2020/11/05 07:10:45;;;;;;;7.6;4.3;;;;;;;9.59;88.47656;953.6166;;;;
2020/11/05 07:13:10;;;;;;;7;4.1;;;;;;;9.45;88.99316;953.6281;;;;
2020/11/05 07:15:39;;;;;;;5.9;3.8;;;;;;;9.58;88.60938;953.6273;;;;
2020/11/05 07:18:07;;;;;;;11.6;4.1;;;;;;;9.53;88.69141;953.616;;;;
2020/11/05 07:20:33;;;;;;;6.1;3.8;;;;;;;9.59;88.44238;953.6644;;;;
2020/11/05 07:22:58;;;;;;;11.1;4.5;;;;;;;9.55;88.24902;953.7104;;;;
2020/11/05 07:25:25;;;;;;;7;4.2;;;;;;;9.54;88.46484;953.7148;;;;
2020/11/05 07:27:51;;;;;;;7.9;3.8;;;;;;;9.68;87.87793;953.765;;;;
2020/11/05 07:30:23;;;;;;;9;4.3;;;;;;;9.39;89.10742;953.7838;;;;
2020/11/05 07:32:52;;;;;;;8.1;4.2;;;;;;;9.5;88.94727;953.7771;;;;
2020/11/05 07:35:17;;;;;;;5.4;3.2;;;;;;;9.65;88.46289;953.7805;;;;
2020/11/05 07:37:44;;;;;;;6.6;3.7;;;;;;;9.62;88.27441;953.7787;;;;
2020/11/05 07:40:09;;;;;;;9;4.4;;;;;;;9.65;87.97461;953.7766;;;;
2020/11/05 07:42:37;;;;;;;6.6;4.3;;;;;;;9.62;88.70996;953.7715;;;;
2020/11/05 07:45:03;;;;;;;10;4.6;;;;;;;9.71;88.29297;953.8194;;;;
2020/11/05 07:47:29;;;;;;;9.4;4.1;;;;;;;9.79;88.0498;953.8433;;;;
2020/11/05 07:49:54;;;;;;;8.4;4.2;;;;;;;9.72;88.41113;953.824;;;;
2020/11/05 07:52:19;;;;;;;9.9;4.3;;;;;;;9.84;87.90137;953.8908;;;;
2020/11/05 07:54:44;;;;;;;9.7;4.2;;;;;;;9.87;87.6543;953.9267;;;;
2020/11/05 07:57:11;;;;;;;9.7;4.5;;;;;;;9.88;87.80566;953.8541;;;;
2020/11/05 07:59:37;;;;;;;8.2;4.3;;;;;;;10.01;87.44531;953.9102;;;;
2020/11/05 08:02:07;;;;;;;12;4.5;;;;;;;10;87.04297;953.942;;;;
2020/11/05 08:04:35;;;;;;;7.6;4.2;;;;;;;9.96;87.11328;954.0256;;;;
2020/11/05 08:07:01;;;;;;;8.2;4.2;;;;;;;9.99;86.96094;954.0235;;;;
2020/11/05 08:09:27;;;;;;;8.8;4.7;;;;;;;9.96;87.23926;953.9428;;;;
2020/11/05 08:11:52;;;;;;;7.3;3.4;;;;;;;10.07;86.73828;954.0323;;;;
2020/11/05 08:14:17;;;;;;;9.4;4.4;;;;;;;10.05;87.14355;954.0588;;;;
2020/11/05 08:16:42;;;;;;;7.7;4;;;;;;;10.32;86.44434;954.0673;;;;
2020/11/05 08:19:07;;;;;;;9.9;4.9;;;;;;;10.24;86.35059;954.0942;;;;
2020/11/05 08:21:32;;;;;;;8.1;3.9;;;;;;;10.31;86.39746;954.1227;;;;
2020/11/05 08:23:57;;;;;;;7.1;4.3;;;;;;;10.3;86.41797;954.0787;;;;
2020/11/05 08:26:27;;;;;;;9.5;4.4;;;;;;;10.3;86.02051;954.1378;;;;
2020/11/05 08:28:55;;;;;;;8;3.6;;;;;;;10.39;85.62598;954.1169;;;;
2020/11/05 08:31:18;;;;;;;8.9;4.6;;;;;;;10.48;85.1416;954.0878;;;;
2020/11/05 08:33:43;;;;;;;9.7;4.5;;;;;;;10.25;85.73633;954.1995;;;;
2020/11/05 08:36:11;;;;;;;6.8;4.2;;;;;;;10.31;85.92969;954.1411;;;;
2020/11/05 08:38:36;;;;;;;8.5;4.7;;;;;;;10.24;85.80078;954.1975;;;;
2020/11/05 08:41:03;;;;;;;9.6;4.6;;;;;;;10.37;87.04883;954.2349;;;;
2020/11/05 08:43:28;;;;;;;7.6;4.4;;;;;;;10.55;86.4209;954.2509;;;;
2020/11/05 08:45:53;;;;;;;8.1;4.1;;;;;;;10.6;86.48926;954.2878;;;;
2020/11/05 08:48:33;;;;;;;8.8;5;;;;;;;10.58;85.12695;954.174;;;;
2020/11/05 08:50:59;;;;;;;9.8;4.9;;;;;;;10.69;85.69629;954.2469;;;;
2020/11/05 08:53:29;;;;;;;6.5;4.1;;;;;;;10.84;85.47559;954.1964;;;;
2020/11/05 08:55:59;;;;;;;7.5;4.6;;;;;;;10.94;85.03809;954.2188;;;;
2020/11/05 08:58:24;;;;;;;7.5;4.6;;;;;;;10.94;84.61523;954.2484;;;;
2020/11/05 09:00:49;;;;;;;10.1;5.5;;;;;;;10.95;83.93066;954.2519;;;;
2020/11/05 09:03:15;;;;;;;8.8;5.3;;;;;;;;;;;;;
2020/11/05 09:05:40;;;;;;;8;4.9;;;;;;;;;;;;;
2020/11/05 09:08:05;;;;;;;8.7;4.4;;;;;;;;;;;;;
2020/11/05 09:10:30;;;;;;;7.7;4.4;;;;;;;;;;;;;
2020/11/05 09:12:55;;;;;;;10.2;4.8;;;;;;;;;;;;;
2020/11/05 09:15:26;;;;;;;8.1;4.8;;;;;;;;;;;;;
2020/11/05 09:17:55;;;;;;;8.8;5.2;;;;;;;;;;;;;
2020/11/05 09:20:21;;;;;;;10.5;4.8;;;;;;;;;;;;;
2020/11/05 09:22:48;;;;;;;11.3;5.2;;;;;;;;;;;;;
2020/11/05 09:25:13;;;;;;;8;4.4;;;;;;;;;;;;;
2020/11/05 09:27:38;;;;;;;9.5;4.6;;;;;;;;;;;;;
2020/11/05 09:30:04;;;;;;;10.3;5.4;;;;;;;;;;;;;
2020/11/05 09:32:29;;;;;;;9.7;4.6;;;;;;;;;;;;;
2020/11/05 09:34:54;;;;;;;8.6;4.3;;;;;;;;;;;;;
2020/11/05 09:37:21;;;;;;;9.6;4.7;;;;;;;;;;;;;
2020/11/05 09:39:46;;;;;;;11.5;4.6;;;;;;;;;;;;;
2020/11/05 09:42:11;;;;;;;11.5;4.9;;;;;;;;;;;;;
2020/11/05 09:44:37;;;;;;;6.5;4;;;;;;;;;;;;;
2020/11/05 09:47:03;;;;;;;7.3;4.2;;;;;;;;;;;;;
2020/11/05 09:49:29;;;;;;;9.2;4.5;;;;;;;;;;;;;
2020/11/05 09:51:54;;;;;;;7.6;4.6;;;;;;;;;;;;;
2020/11/05 09:54:19;;;;;;;9.2;4.8;;;;;;;;;;;;;
2020/11/05 09:56:44;;;;;;;8.4;4.1;;;;;;;;;;;;;
2020/11/05 09:59:12;;;;;;;13.1;4.9;;;;;;;;;;;;;
2020/11/05 10:01:36;;;;;;;7.4;4.2;;;;;;;;;;;;;
2020/11/05 10:04:03;;;;;;;14;4.7;;;;;;;;;;;;;
2020/11/05 10:06:28;;;;;;;7.1;4.1;;;;;;;;;;;;;
2020/11/05 10:08:53;;;;;;;8.4;4.7;;;;;;;;;;;;;
2020/11/05 10:11:18;;;;;;;10.5;4.2;;;;;;;;;;;;;
2020/11/05 10:13:45;;;;;;;7.9;3.7;;;;;;;;;;;;;
2020/11/05 10:16:10;;;;;;;6.9;3.6;;;;;;;;;;;;;
2020/11/05 10:18:35;;;;;;;9;4.1;;;;;;;;;;;;;
2020/11/05 10:21:00;;;;;;;10.8;3.5;;;;;;;;;;;;;
2020/11/05 10:23:26;;;;;;;5.6;3.5;;;;;;;;;;;;;
2020/11/05 10:25:51;;;;;;;7.2;3.4;;;;;;;;;;;;;
2020/11/05 10:28:16;;;;;;;9.9;3.9;;;;;;;;;;;;;
2020/11/05 10:30:42;;;;;;;6.8;3.7;;;;;;;;;;;;;
2020/11/05 10:33:07;;;;;;;4.7;3.3;;;;;;;;;;;;;
2020/11/05 10:35:33;;;;;;;9.6;3.3;;;;;;;;;;;;;
2020/11/05 10:37:57;;;;;;;8.2;4.1;;;;;;;;;;;;;
2020/11/05 10:40:22;;;;;;;5.1;3.6;;;;;;;;;;;;;
2020/11/05 10:42:48;;;;;;;10.2;4;;;;;;;;;;;;;
2020/11/05 10:45:13;;;;;;;8;4.2;;;;;;;;;;;;;
2020/11/05 10:47:38;;;;;;;6.4;3.6;;;;;;;;;;;;;
2020/11/05 10:50:05;;;;;;;5.9;3.4;;;;;;;;;;;;;
2020/11/05 10:52:29;;;;;;;6.8;3.8;;;;;;;;;;;;;
2020/11/05 10:54:55;;;;;;;6.5;3.5;;;;;;;;;;;;;
2020/11/05 10:57:21;;;;;;;7.6;3.9;;;;;;;;;;;;;
2020/11/05 10:59:45;;;;;;;6.9;3.6;;;;;;;;;;;;;
2020/11/05 11:02:12;;;;;;;6.4;3.8;;;;;;;;;;;;;
2020/11/05 11:04:37;;;;;;;5.7;3.7;;;;;;;;;;;;;
2020/11/05 11:07:02;;;;;;;7.5;4;;;;;;;;;;;;;
2020/11/05 11:09:28;;;;;;;9;4.2;;;;;;;;;;;;;
2020/11/05 11:11:54;;;;;;;6.4;3.9;;;;;;;;;;;;;
2020/11/05 11:14:19;;;;;;;6.1;3.7;;;;;;;;;;;;;
2020/11/05 11:16:44;;;;;;;7.6;3.8;;;;;;;;;;;;;
2020/11/05 11:19:09;;;;;;;5.7;3.4;;;;;;;;;;;;;
2020/11/05 11:21:36;;;;;;;7.3;3.6;;;;;;;;;;;;;
2020/11/05 11:24:01;;;;;;;6.2;3.6;;;;;;;;;;;;;
2020/11/05 11:26:26;;;;;;;5.5;3.2;;;;;;;;;;;;;
2020/11/05 11:28:52;;;;;;;14.3;3.7;;;;;;;;;;;;;
2020/11/05 11:31:18;;;;;;;10.6;4.3;;;;;;;;;;;;;
2020/11/05 11:33:43;;;;;;;6.2;4;;;;;;;;;;;;;
2020/11/05 11:36:08;;;;;;;7.9;3.9;;;;;;;;;;;;;
2020/11/05 11:38:34;;;;;;;5.2;3.2;;;;;;;;;;;;;
2020/11/05 11:41:00;;;;;;;7.2;3.6;;;;;;;;;;;;;
2020/11/05 11:43:25;;;;;;;5.1;3.2;;;;;;;;;;;;;
2020/11/05 11:45:51;;;;;;;5.9;3.4;;;;;;;;;;;;;
2020/11/05 11:48:17;;;;;;;6.8;3.1;;;;;;;;;;;;;
2020/11/05 11:50:42;;;;;;;4.7;2.7;;;;;;;;;;;;;
2020/11/05 11:53:07;;;;;;;4.9;2.9;;;;;;;;;;;;;
2020/11/05 11:55:34;;;;;;;4.1;2.7;;;;;;;;;;;;;
2020/11/05 11:57:59;;;;;;;5.3;3.1;;;;;;;;;;;;;
2020/11/05 12:00:27;;;;;;;4.7;2.8;;;;;;;;;;;;;
2020/11/05 12:02:52;;;;;;;6.5;3.3;;;;;;;;;;;;;
2020/11/05 12:05:19;;;;;;;6.4;3.3;;;;;;;;;;;;;
2020/11/05 12:07:44;;;;;;;5.2;3.2;;;;;;;;;;;;;
2020/11/05 12:10:09;;;;;;;4.5;2.7;;;;;;;;;;;;;
2020/11/05 12:12:35;;;;;;;5.8;3.3;;;;;;;;;;;;;
2020/11/05 12:15:00;;;;;;;6;3.3;;;;;;;;;;;;;
2020/11/05 12:17:25;;;;;;;5;3.4;;;;;;;;;;;;;
2020/11/05 12:19:50;;;;;;;5.6;3.3;;;;;;;;;;;;;
2020/11/05 12:22:15;;;;;;;7.3;3.4;;;;;;;;;;;;;
2020/11/05 12:24:41;;;;;;;8.4;4.1;;;;;;;;;;;;;
2020/11/05 12:27:06;;;;;;;7.6;3.4;;;;;;;;;;;;;
2020/11/05 12:29:31;;;;;;;4.6;3.1;;;;;;;;;;;;;
2020/11/05 12:31:57;;;;;;;5;2.8;;;;;;;;;;;;;
2020/11/05 12:34:22;;;;;;;11.1;3.8;;;;;;;;;;;;;
2020/11/05 12:36:47;;;;;;;5.7;3.5;;;;;;;;;;;;;
2020/11/05 12:39:13;;;;;;;5;2.9;;;;;;;;;;;;;
2020/11/05 12:41:38;;;;;;;6.2;3.4;;;;;;;;;;;;;
2020/11/05 12:44:03;;;;;;;5.7;2.7;;;;;;;;;;;;;
2020/11/05 12:46:29;;;;;;;4.3;2.6;;;;;;;;;;;;;
2020/11/05 12:48:55;;;;;;;5.4;3.2;;;;;;;;;;;;;
2020/11/05 12:51:20;;;;;;;5;3.2;;;;;;;;;;;;;
2020/11/05 12:53:45;;;;;;;4.2;2.8;;;;;;;;;;;;;
2020/11/05 12:56:10;;;;;;;4.3;2.9;;;;;;;;;;;;;
2020/11/05 12:58:35;;;;;;;5.1;3;;;;;;;;;;;;;
2020/11/05 13:01:01;;;;;;;3.9;2.4;;;;;;;;;;;;;
2020/11/05 13:03:26;;;;;;;4.7;2.8;;;;;;;;;;;;;
2020/11/05 13:05:52;;;;;;;5.9;3;;;;;;;;;;;;;
2020/11/05 13:08:17;;;;;;;4.8;2.9;;;;;;;;;;;;;
2020/11/05 13:10:43;;;;;;;5.2;2.7;;;;;;;;;;;;;
2020/11/05 13:13:08;;;;;;;5.6;2.8;;;;;;;;;;;;;
2020/11/05 13:15:33;;;;;;;4.5;3.2;;;;;;;;;;;;;
2020/11/05 13:17:58;;;;;;;4.4;2.6;;;;;;;;;;;;;
2020/11/05 13:20:23;;;;;;;6.7;3;;;;;;;;;;;;;
2020/11/05 13:22:48;;;;;;;4.4;2.7;;;;;;;;;;;;;
2020/11/05 13:25:14;;;;;;;6.6;3.5;;;;;;;;;;;;;
2020/11/05 13:27:39;;;;;;;8.6;3.3;;;;;;;;;;;;;
2020/11/05 13:30:04;;;;;;;7.6;3.3;;;;;;;;;;;;;
2020/11/05 13:32:30;;;;;;;3.7;2.7;;;;;;;;;;;;;
2020/11/05 13:34:55;;;;;;;5.6;2.6;;;;;;;;;;;;;
2020/11/05 13:37:20;;;;;;;6.1;3.1;;;;;;;;;;;;;
2020/11/05 13:39:46;;;;;;;6.1;2.9;;;;;;;;;;;;;
2020/11/05 13:42:11;;;;;;;3.8;2.4;;;;;;;;;;;;;
2020/11/05 13:44:44;;;;;;;7.1;2.9;;;;;;;;;;;;;
2020/11/05 13:47:09;;;;;;;6.7;3;;;;;;;;;;;;;
2020/11/05 13:49:34;;;;;;;5.2;3.2;;;;;;;;;;;;;
2020/11/05 13:52:00;;;;;;;4.6;2.7;;;;;;;;;;;;;
2020/11/05 13:54:25;;;;;;;3.5;2.9;;;;;;;;;;;;;
2020/11/05 13:56:50;;;;;;;6.9;3;;;;;;;;;;;;;
2020/11/05 13:59:15;;;;;;;5.5;2.6;;;;;;;;;;;;;
2020/11/05 14:01:41;;;;;;;4.8;3;;;;;;;;;;;;;
2020/11/05 14:04:06;;;;;;;3.8;2.5;;;;;;;;;;;;;
2020/11/05 14:06:34;;;;;;;4.9;2.6;;;;;;;;;;;;;
2020/11/05 14:08:59;;;;;;;4.4;2.9;;;;;;;;;;;;;
2020/11/05 14:11:25;;;;;;;5.7;2.8;;;;;;;;;;;;;
2020/11/05 14:13:50;;;;;;;3.9;2.9;;;;;;;;;;;;;
2020/11/05 14:16:15;;;;;;;5.7;2.6;;;;;;;;;;;;;
2020/11/05 14:18:40;;;;;;;6.1;3.3;;;;;;;;;;;;;
2020/11/05 14:21:06;;;;;;;4.4;2.7;;;;;;;;;;;;;
2020/11/05 14:23:31;;;;;;;5;3.1;;;;;;;;;;;;;
2020/11/05 14:25:56;;;;;;;3.5;2.3;;;;;;;;;;;;;
2020/11/05 14:28:21;;;;;;;5.4;2.9;;;;;;;;;;;;;
2020/11/05 14:30:46;;;;;;;4.8;2.7;;;;;;;;;;;;;
2020/11/05 14:33:11;;;;;;;4.6;2.8;;;;;;;;;;;;;
2020/11/05 14:35:36;;;;;;;7.4;3;;;;;;;;;;;;;
2020/11/05 14:38:02;;;;;;;3;2.1;;;;;;;;;;;;;
2020/11/05 14:40:28;;;;;;;4.1;2.9;;;;;;;;;;;;;
2020/11/05 14:42:53;;;;;;;5.3;3;;;;;;;;;;;;;
2020/11/05 14:45:18;;;;;;;5.1;3.2;;;;;;;;;;;;;
2020/11/05 14:47:43;;;;;;;4.3;2.9;;;;;;;;;;;;;
2020/11/05 14:50:08;;;;;;;7.3;3.1;;;;;;;;;;;;;
2020/11/05 14:52:36;;;;;;;5.7;3;;;;;;;;;;;;;
2020/11/05 14:55:00;;;;;;;3.6;2.3;;;;;;;;;;;;;
2020/11/05 14:57:24;;;;;;;6.9;3.3;;;;;;;;;;;;;
2020/11/05 14:59:51;;;;;;;7.8;3.9;;;;;;;;;;;;;
2020/11/05 15:02:16;;;;;;;11;6;;;;;;;;;;;;;
2020/11/05 15:04:41;;;;;;;15.2;8.3;;;;;;;;;;;;;
2020/11/05 15:07:07;;;;;;;10.3;6.4;;;;;;;;;;;;;
2020/11/05 15:09:32;;;;;;;10.7;6.5;;;;;;;;;;;;;
2020/11/05 15:11:57;;;;;;;13.3;6.3;;;;;;;;;;;;;
2020/11/05 15:14:22;;;;;;;7.3;4.7;;;;;;;;;;;;;
2020/11/05 15:16:47;;;;;;;6.9;4.1;;;;;;;;;;;;;
2020/11/05 15:19:12;;;;;;;6;3.2;;;;;;;;;;;;;
2020/11/05 15:21:37;;;;;;;5.7;3.3;;;;;;;;;;;;;
2020/11/05 15:24:03;;;;;;;7.7;3.3;;;;;;;;;;;;;
2020/11/05 15:26:28;;;;;;;6.3;3.5;;;;;;;;;;;;;
2020/11/05 15:28:53;;;;;;;7.6;3.8;;;;;;;;;;;;;
2020/11/05 15:31:18;;;;;;;12.3;6.3;;;;;;;;;;;;;
2020/11/05 15:33:44;;;;;;;6.2;3.4;;;;;;;;;;;;;
2020/11/05 15:36:10;;;;;;;5.2;3.1;;;;;;;;;;;;;
2020/11/05 15:38:35;;;;;;;4.8;2.7;;;;;;;;;;;;;
2020/11/05 15:41:01;;;;;;;6.2;3.2;;;;;;;;;;;;;
2020/11/05 15:43:26;;;;;;;6.9;3.1;;;;;;;;;;;;;
2020/11/05 15:45:55;;;;;;;5.2;3.2;;;;;;;;;;;;;
2020/11/05 15:48:19;;;;;;;4.8;2.6;;;;;;;;;;;;;
2020/11/05 15:50:45;;;;;;;4.4;2.9;;;;;;;;;;;;;
2020/11/05 15:53:11;;;;;;;8.9;3.5;;;;;;;;;;;;;
2020/11/05 15:55:36;;;;;;;5.7;3.2;;;;;;;;;;;;;
2020/11/05 15:58:06;;;;;;;5;2.9;;;;;;;;;;;;;
2020/11/05 16:00:31;;;;;;;4.2;2.9;;;;;;;;;;;;;
2020/11/05 16:02:56;;;;;;;4.1;2.8;;;;;;;;;;;;;
2020/11/05 16:05:23;;;;;;;4.3;2.7;;;;;;;;;;;;;
2020/11/05 16:07:48;;;;;;;5;3.1;;;;;;;;;;;;;
2020/11/05 16:10:13;;;;;;;5.5;2.9;;;;;;;;;;;;;
2020/11/05 16:12:38;;;;;;;5.2;3.5;;;;;;;;;;;;;
2020/11/05 16:15:04;;;;;;;5.9;3.6;;;;;;;;;;;;;
2020/11/05 16:17:29;;;;;;;5.7;3.7;;;;;;;;;;;;;
2020/11/05 16:19:55;;;;;;;5.5;3.1;;;;;;;;;;;;;
2020/11/05 16:22:20;;;;;;;7.1;3.7;;;;;;;;;;;;;
2020/11/05 16:24:45;;;;;;;4.8;3.1;;;;;;;;;;;;;
2020/11/05 16:27:11;;;;;;;5.1;3;;;;;;;;;;;;;
2020/11/05 16:29:36;;;;;;;6.3;3.5;;;;;;;;;;;;;
2020/11/05 16:32:01;;;;;;;5;3.1;;;;;;;;;;;;;
2020/11/05 16:34:26;;;;;;;5.5;3.2;;;;;;;;;;;;;
2020/11/05 16:36:51;;;;;;;5.7;3.1;;;;;;;;;;;;;
2020/11/05 16:39:17;;;;;;;7.5;3.7;;;;;;;;;;;;;
2020/11/05 16:41:42;;;;;;;4.2;2.9;;;;;;;;;;;;;
2020/11/05 16:44:07;;;;;;;5;2.7;;;;;;;;;;;;;
2020/11/05 16:46:32;;;;;;;7.7;3.9;;;;;;;;;;;;;
2020/11/05 16:48:58;;;;;;;5.3;3.4;;;;;;;;;;;;;
2020/11/05 16:51:23;;;;;;;6.1;3.7;;;;;;;;;;;;;
2020/11/05 16:53:49;;;;;;;5.9;3.5;;;;;;;;;;;;;
2020/11/05 16:56:14;;;;;;;5;2.9;;;;;;;;;;;;;
2020/11/05 16:58:41;;;;;;;4.6;3.3;;;;;;;;;;;;;
2020/11/05 17:01:08;;;;;;;6.6;3.6;;;;;;;;;;;;;
2020/11/05 17:03:31;;;;;;;9.3;3.5;;;;;;;;;;;;;
2020/11/05 17:05:56;;;;;;;4.3;3.2;;;;;;;;;;;;;
2020/11/05 17:08:21;;;;;;;7.3;3.9;;;;;;;;;;;;;
2020/11/05 17:10:46;;;;;;;11.4;3.6;;;;;;;;;;;;;
2020/11/05 17:13:11;;;;;;;6.5;3.2;;;;;;;;;;;;;
2020/11/05 17:15:37;;;;;;;5.3;3.1;;;;;;;;;;;;;
2020/11/05 17:18:03;;;;;;;4.3;3.2;;;;;;;;;;;;;
2020/11/05 17:20:28;;;;;;;5.8;3.5;;;;;;;;;;;;;
2020/11/05 17:22:54;;;;;;;5.9;3.4;;;;;;;;;;;;;
2020/11/05 17:25:19;;;;;;;7.2;3.8;;;;;;;;;;;;;
2020/11/05 17:27:44;;;;;;;4.3;2.9;;;;;;;;;;;;;
2020/11/05 17:30:10;;;;;;;5.9;3.3;;;;;;;;;;;;;
2020/11/05 17:32:37;;;;;;;8.1;4.6;;;;;;;;;;;;;
2020/11/05 17:35:02;;;;;;;5.6;3.5;;;;;;;;;;;;;
2020/11/05 17:37:27;;;;;;;9;4;;;;;;;;;;;;;
2020/11/05 17:39:53;;;;;;;12.1;4.6;;;;;;;;;;;;;
2020/11/05 17:42:19;;;;;;;7.3;3.6;;;;;;;;;;;;;
2020/11/05 17:44:46;;;;;;;6.5;4.1;;;;;;;;;;;;;
2020/11/05 17:47:11;;;;;;;6;3.7;;;;;;;;;;;;;
2020/11/05 17:49:36;;;;;;;8;3.9;;;;;;;;;;;;;
2020/11/05 17:52:01;;;;;;;8.9;4;;;;;;;;;;;;;
2020/11/05 17:54:26;;;;;;;8.2;3.9;;;;;;;;;;;;;
2020/11/05 17:56:52;;;;;;;8.1;4.5;;;;;;;;;;;;;
2020/11/05 17:59:16;;;;;;;7.1;4.3;;;;;;;;;;;;;
2020/11/05 18:01:43;;;;;;;6.7;4.1;;;;;;;;;;;;;
2020/11/05 18:04:08;;;;;;;6;4.1;;;;;;;;;;;;;
2020/11/05 18:06:33;;;;;;;6.8;4.2;;;;;;;;;;;;;
2020/11/05 18:08:58;;;;;;;6.4;3.9;;;;;;;;;;;;;
2020/11/05 18:11:23;;;;;;;6.7;4.6;;;;;;;;;;;;;
2020/11/05 18:13:49;;;;;;;6.9;4.2;;;;;;;;;;;;;
2020/11/05 18:16:14;;;;;;;8.5;4.3;;;;;;;;;;;;;
2020/11/05 18:18:39;;;;;;;6.5;4.2;;;;;;;;;;;;;
2020/11/05 18:21:04;;;;;;;8.8;4.6;;;;;;;;;;;;;
2020/11/05 18:23:30;;;;;;;6.3;3.8;;;;;;;;;;;;;
2020/11/05 18:25:56;;;;;;;7.8;4.5;;;;;;;;;;;;;
2020/11/05 18:28:21;;;;;;;8.9;5;;;;;;;;;;;;;